createdAt,value
2023-05-01T00:00:30.237Z,43.97
2023-05-01T00:03:01.996Z,44.98
2023-05-01T00:05:33.644Z,44.09
2023-05-01T00:08:05.452Z,43.79
2023-05-01T00:10:40.244Z,44.57
2023-05-01T00:13:11.879Z,44.64
2023-05-01T00:15:43.697Z,44.96
2023-05-01T00:18:15.465Z,44.34
2023-05-01T00:20:47.443Z,44.74
2023-05-01T00:23:18.958Z,44.35
2023-05-01T00:25:50.655Z,45.16
2023-05-01T00:28:23.349Z,44.74
2023-05-01T00:31:02.224Z,44.55
2023-05-01T00:33:35.187Z,44.42
2023-05-01T00:36:07.104Z,44.00
2023-05-01T00:38:40.273Z,44.08
2023-05-01T00:41:12.343Z,44.18
2023-05-01T00:43:45.320Z,44.62
2023-05-01T00:46:20.711Z,44.60
2023-05-01T00:48:54.243Z,44.24
2023-05-01T00:51:29.110Z,45.40
2023-05-01T00:54:01.629Z,44.83
2023-05-01T00:56:33.428Z,43.99
2023-05-01T00:59:05.665Z,44.61
2023-05-01T01:01:37.398Z,44.88
2023-05-01T01:04:09.173Z,44.33
2023-05-01T01:07:11.670Z,44.32
2023-05-01T01:10:02.604Z,44.68
2023-05-01T01:13:09.454Z,45.18
2023-05-01T01:16:11.681Z,45.48
2023-05-01T01:19:20.365Z,44.96
2023-05-01T01:21:58.915Z,45.71
2023-05-01T01:25:14.883Z,45.60
2023-05-01T01:28:11.580Z,46.30
2023-05-01T01:30:52.196Z,44.92
2023-05-01T01:34:02.517Z,45.31
2023-05-01T01:36:49.234Z,44.62
2023-05-01T01:39:52.952Z,44.46
2023-05-01T01:42:39.105Z,46.05
2023-05-01T01:45:23.745Z,46.31
2023-05-01T01:47:57.366Z,47.64
2023-05-01T01:50:29.196Z,48.34
2023-05-01T01:53:04.230Z,48.69
2023-05-01T01:55:36.402Z,49.36
2023-05-01T01:58:10.614Z,51.46
2023-05-01T02:00:45.633Z,52.24
2023-05-01T02:03:17.566Z,52.20
2023-05-01T02:05:50.342Z,52.40
2023-05-01T02:08:24.654Z,51.89
2023-05-01T02:11:01.711Z,52.28
2023-05-01T02:13:35.414Z,53.24
2023-05-01T02:16:08.339Z,53.96
2023-05-01T02:18:41.676Z,55.38
2023-05-01T02:21:15.132Z,56.27
2023-05-01T02:23:46.940Z,57.75
2023-05-01T02:26:26.620Z,59.31
2023-05-01T02:28:59.413Z,58.33
2023-05-01T02:31:31.045Z,59.21
2023-05-01T02:34:02.664Z,58.31
2023-05-01T02:36:40.514Z,58.59
2023-05-01T02:39:12.249Z,57.38
2023-05-01T02:41:48.788Z,57.76
2023-05-01T02:44:20.809Z,58.58
2023-05-01T02:46:55.339Z,57.98
2023-05-01T02:49:27.678Z,58.71
2023-05-01T02:52:00.983Z,59.83
2023-05-01T02:54:33.047Z,58.65
2023-05-01T02:57:06.280Z,58.41
2023-05-01T02:59:38.219Z,59.98
2023-05-01T03:02:09.775Z,60.09
2023-05-01T03:04:43.803Z,59.65
2023-05-01T03:07:15.516Z,59.52
2023-05-01T03:09:47.098Z,59.07
2023-05-01T03:12:18.920Z,59.07
2023-05-01T03:14:50.521Z,60.17
2023-05-01T03:17:22.746Z,59.46
2023-05-01T03:19:54.558Z,59.70
2023-05-01T03:22:29.759Z,59.62
2023-05-01T03:25:01.575Z,60.24
2023-05-01T03:27:33.187Z,61.27
2023-05-01T03:30:05.623Z,64.01
2023-05-01T03:32:37.245Z,62.10
2023-05-01T03:35:09.429Z,61.37
2023-05-01T03:37:41.444Z,60.20
2023-05-01T03:40:13.822Z,60.25
2023-05-01T03:42:45.445Z,60.30
2023-05-01T03:45:17.191Z,61.65
2023-05-01T03:47:48.801Z,61.41
2023-05-01T03:50:20.666Z,61.21
2023-05-01T03:52:52.260Z,63.63
2023-05-01T03:55:23.837Z,61.37
2023-05-01T03:57:55.557Z,60.49
2023-05-01T04:00:27.207Z,60.59
2023-05-01T04:03:02.039Z,60.80
2023-05-01T04:05:34.229Z,61.40
2023-05-01T04:08:06.016Z,60.91
2023-05-01T04:10:37.582Z,60.83
2023-05-01T04:13:09.239Z,60.41
2023-05-01T04:15:45.941Z,59.91
2023-05-01T04:18:17.564Z,59.67
2023-05-01T04:20:49.321Z,60.85
2023-05-01T04:23:22.155Z,59.58
2023-05-01T04:25:54.756Z,59.70
2023-05-01T04:28:27.844Z,60.10
2023-05-01T04:30:59.573Z,60.01
2023-05-01T04:33:31.117Z,60.01
2023-05-01T04:36:05.086Z,59.81
2023-05-01T04:38:37.454Z,59.99
2023-05-01T04:41:09.464Z,60.40
2023-05-01T04:43:40.983Z,60.81
2023-05-01T04:46:19.842Z,60.68
2023-05-01T04:48:51.480Z,59.84
2023-05-01T04:51:23.405Z,60.18
2023-05-01T04:53:55.777Z,60.27
2023-05-01T04:56:27.375Z,59.81
2023-05-01T04:59:01.449Z,60.40
2023-05-01T05:01:36.138Z,60.54
2023-05-01T05:04:09.962Z,60.27
2023-05-01T05:06:41.792Z,59.42
2023-05-01T05:09:14.267Z,60.01
2023-05-01T05:11:46.095Z,59.80
2023-05-01T05:14:17.694Z,59.82
2023-05-01T05:16:49.387Z,59.46
2023-05-01T05:19:20.994Z,59.37
2023-05-01T05:21:54.781Z,59.97
2023-05-01T05:24:26.371Z,59.47
2023-05-01T05:26:58.069Z,59.11
2023-05-01T05:29:29.680Z,59.89
2023-05-01T05:32:01.635Z,60.14
2023-05-01T05:34:33.249Z,60.02
2023-05-01T05:37:07.372Z,60.51
2023-05-01T05:39:39.021Z,62.02
2023-05-01T05:42:10.583Z,61.12
2023-05-01T05:44:42.149Z,60.67
2023-05-01T05:47:13.750Z,60.68
2023-05-01T05:49:45.318Z,60.57
2023-05-01T05:52:17.609Z,60.92
2023-05-01T05:54:49.473Z,61.76
2023-05-01T05:57:21.121Z,60.53
2023-05-01T05:59:55.100Z,61.23
2023-05-01T06:02:27.169Z,64.81
2023-05-01T06:04:59.414Z,66.08
2023-05-01T06:07:33.135Z,63.32
2023-05-01T06:10:05.434Z,65.13
2023-05-01T06:12:41.210Z,65.62
2023-05-01T06:15:22.427Z,64.18
2023-05-01T06:17:54.190Z,62.75
2023-05-01T06:20:28.403Z,62.31
2023-05-01T06:23:00.007Z,63.84
2023-05-01T06:25:31.639Z,64.34
2023-05-01T06:28:03.947Z,64.35
2023-05-01T06:30:35.674Z,64.58
2023-05-01T06:33:07.346Z,63.37
2023-05-01T06:35:40.092Z,62.79
2023-05-01T06:38:11.670Z,62.54
2023-05-01T06:40:43.391Z,61.37
2023-05-01T06:43:15.523Z,60.77
2023-05-01T06:45:47.108Z,61.73
2023-05-01T06:48:18.664Z,64.44
2023-05-01T06:50:50.375Z,66.07
2023-05-01T06:53:21.947Z,62.53
2023-05-01T06:55:53.485Z,63.99
2023-05-01T06:58:25.035Z,62.63
2023-05-01T07:00:56.740Z,60.99
2023-05-01T07:03:28.387Z,60.80
2023-05-01T07:05:59.998Z,59.74
2023-05-01T07:08:32.219Z,60.47
2023-05-01T07:11:03.845Z,60.73
2023-05-01T07:13:35.546Z,60.12
2023-05-01T07:16:07.794Z,59.40
2023-05-01T07:18:39.421Z,58.96
2023-05-01T07:21:11.997Z,58.93
2023-05-01T07:23:43.611Z,58.18
2023-05-01T07:26:15.181Z,59.65
2023-05-01T07:28:46.771Z,57.61
2023-05-01T07:31:18.470Z,58.48
2023-05-01T07:33:51.109Z,58.75
2023-05-01T07:36:22.873Z,59.01
2023-05-01T07:38:55.426Z,57.71
2023-05-01T07:41:27.122Z,59.02
2023-05-01T07:43:59.902Z,59.05
2023-05-01T07:46:33.578Z,60.52
2023-05-01T07:49:05.504Z,63.85
2023-05-01T07:51:40.194Z,60.84
2023-05-01T07:54:11.978Z,61.80
2023-05-01T07:56:47.053Z,59.53
2023-05-01T07:59:19.555Z,60.92
2023-05-01T08:01:51.150Z,60.82
2023-05-01T08:04:23.488Z,61.62
2023-05-01T08:06:55.209Z,62.98
2023-05-01T08:09:27.021Z,59.18
2023-05-01T08:11:58.603Z,58.94
2023-05-01T08:14:30.830Z,59.35
2023-05-01T08:17:02.382Z,61.03
2023-05-01T08:19:34.849Z,61.01
2023-05-01T08:22:06.395Z,60.19
2023-05-01T08:24:42.777Z,58.33
2023-05-01T08:27:17.475Z,60.48
2023-05-01T08:29:49.602Z,56.15
2023-05-01T08:32:21.716Z,55.15
2023-05-01T08:34:53.386Z,56.16
2023-05-01T08:37:27.781Z,55.75
2023-05-01T08:39:59.392Z,56.09
2023-05-01T08:42:39.011Z,56.06
2023-05-01T08:45:14.215Z,57.32
2023-05-01T08:47:49.525Z,57.80
2023-05-01T08:50:22.826Z,55.96
2023-05-01T08:52:56.041Z,55.29
2023-05-01T08:55:30.134Z,56.60
2023-05-01T08:58:04.087Z,60.54
2023-05-01T09:00:39.614Z,59.89
2023-05-01T09:03:14.508Z,60.08
2023-05-01T09:05:47.066Z,60.73
2023-05-01T09:08:20.769Z,62.19
2023-05-01T09:10:54.135Z,64.50
2023-05-01T09:13:26.370Z,60.12
2023-05-01T09:15:58.078Z,59.17
2023-05-01T09:18:31.387Z,61.68
2023-05-01T09:21:03.554Z,60.82
2023-05-01T09:23:39.857Z,62.28
2023-05-01T09:26:11.967Z,61.03
2023-05-01T09:28:48.231Z,56.66
2023-05-01T09:31:28.992Z,56.26
2023-05-01T09:34:04.006Z,58.62
2023-05-01T09:36:37.065Z,56.58
2023-05-01T09:39:08.754Z,55.39
2023-05-01T09:41:52.661Z,54.59
2023-05-01T09:44:24.765Z,55.58
2023-05-01T09:46:56.402Z,56.66
2023-05-01T09:49:46.426Z,56.07
2023-05-01T09:52:18.266Z,55.40
2023-05-01T09:54:49.901Z,56.13
2023-05-01T09:57:40.705Z,57.23
2023-05-01T10:00:15.533Z,54.92
2023-05-01T10:02:51.252Z,54.98
2023-05-01T10:05:23.663Z,53.84
2023-05-01T10:08:03.710Z,52.08
2023-05-01T10:10:36.004Z,48.92
2023-05-01T10:13:15.323Z,48.16
2023-05-01T10:15:47.034Z,48.82
2023-05-01T10:18:19.901Z,49.25
2023-05-01T10:20:51.871Z,49.17
2023-05-01T10:23:25.429Z,49.11
2023-05-01T10:26:04.052Z,50.61
2023-05-01T10:28:37.169Z,51.01
2023-05-01T10:31:10.462Z,52.70
2023-05-01T10:33:46.741Z,58.31
2023-05-01T10:36:34.077Z,57.85
2023-05-01T10:39:07.200Z,54.28
2023-05-01T10:42:17.962Z,51.97
2023-05-01T10:44:49.709Z,49.67
2023-05-01T10:47:29.885Z,47.10
2023-05-01T10:50:15.970Z,47.15
2023-05-01T10:53:12.703Z,48.77
2023-05-01T10:55:49.467Z,50.90
2023-05-01T10:58:39.518Z,47.61
2023-05-01T11:01:37.738Z,52.52
2023-05-01T11:04:27.284Z,51.46
2023-05-01T11:07:05.447Z,51.65
2023-05-01T11:09:55.132Z,53.64
2023-05-01T11:12:45.845Z,48.56
2023-05-01T11:15:34.292Z,48.17
2023-05-01T11:20:49.492Z,57.20
2023-05-01T11:23:22.729Z,50.02
2023-05-01T11:26:04.727Z,54.08
2023-05-01T11:28:38.414Z,55.15
2023-05-01T11:31:13.663Z,54.22
2023-05-01T11:33:45.350Z,50.89
2023-05-01T11:38:53.342Z,48.79
2023-05-01T11:41:28.565Z,50.51
2023-05-01T11:44:00.385Z,47.39
2023-05-01T11:46:36.213Z,55.33
2023-05-01T11:49:08.637Z,53.24
2023-05-01T11:51:40.211Z,49.09
2023-05-01T11:54:15.189Z,50.56
2023-05-01T11:56:47.622Z,50.39
2023-05-01T11:59:19.169Z,50.70
2023-05-01T12:01:51.131Z,50.80
2023-05-01T12:04:31.674Z,51.87
2023-05-01T12:07:23.857Z,52.26
2023-05-01T12:09:55.572Z,51.53
2023-05-01T12:12:27.313Z,48.22
2023-05-01T12:14:59.248Z,47.87
2023-05-01T12:17:31.605Z,49.41
2023-05-01T12:20:04.527Z,48.15
2023-05-01T12:22:52.069Z,53.64
2023-05-01T12:25:32.057Z,57.97
2023-05-01T12:28:10.296Z,52.34
2023-05-01T12:30:43.824Z,49.98
2023-05-01T12:33:16.562Z,50.03
2023-05-01T12:35:50.822Z,53.97
2023-05-01T12:38:23.638Z,56.14
2023-05-01T12:41:00.033Z,58.05
2023-05-01T12:43:37.306Z,56.07
2023-05-01T12:46:15.845Z,53.15
2023-05-01T12:48:49.199Z,50.96
2023-05-01T12:51:21.427Z,52.74
2023-05-01T12:53:57.430Z,51.60
2023-05-01T12:56:29.057Z,54.33
2023-05-01T12:59:00.701Z,52.84
2023-05-01T13:01:32.396Z,53.04
2023-05-01T13:04:04.487Z,55.64
2023-05-01T13:06:36.335Z,56.35
2023-05-01T13:09:11.172Z,55.90
2023-05-01T13:11:42.834Z,54.13
2023-05-01T13:14:14.513Z,59.29
2023-05-01T13:16:46.616Z,57.23
2023-05-01T13:19:28.874Z,60.10
2023-05-01T13:22:01.052Z,58.73
2023-05-01T13:24:40.534Z,57.55
2023-05-01T13:27:15.194Z,55.34
2023-05-01T13:29:55.903Z,58.10
2023-05-01T13:32:28.221Z,60.95
2023-05-01T13:35:03.312Z,56.72
2023-05-01T13:37:42.468Z,57.69
2023-05-01T13:40:16.477Z,57.19
2023-05-01T13:42:54.188Z,60.43
2023-05-01T13:45:32.142Z,61.62
2023-05-01T13:48:05.254Z,62.75
2023-05-01T13:50:42.965Z,59.33
2023-05-01T13:53:14.736Z,58.72
2023-05-01T13:55:46.489Z,57.08
2023-05-01T13:58:18.092Z,64.49
2023-05-01T14:00:49.918Z,59.47
2023-05-01T14:03:24.616Z,61.84
2023-05-01T14:05:56.380Z,63.15
2023-05-01T14:08:30.743Z,61.88
2023-05-01T14:11:09.675Z,66.25
2023-05-01T14:13:43.498Z,63.09
2023-05-01T14:16:28.345Z,61.64
2023-05-01T14:19:00.062Z,62.85
2023-05-01T14:21:31.948Z,61.17
2023-05-01T14:24:04.380Z,58.55
2023-05-01T14:26:40.555Z,57.37
2023-05-01T14:29:29.742Z,60.43
2023-05-01T14:32:05.249Z,64.90
2023-05-01T14:34:42.252Z,62.67
2023-05-01T14:37:17.214Z,60.07
2023-05-01T14:39:48.813Z,61.93
2023-05-01T14:42:20.551Z,58.77
2023-05-01T14:44:52.114Z,58.62
2023-05-01T14:47:23.706Z,59.17
2023-05-01T14:49:55.356Z,57.64
2023-05-01T14:52:27.770Z,57.82
2023-05-01T14:55:01.641Z,56.91
2023-05-01T14:57:33.253Z,56.48
2023-05-01T15:00:09.155Z,57.30
2023-05-01T15:02:40.800Z,59.64
2023-05-01T15:05:12.897Z,58.60
2023-05-01T15:07:44.550Z,61.16
2023-05-01T15:10:16.407Z,64.60
2023-05-01T15:12:48.158Z,64.83
2023-05-01T15:15:21.438Z,64.52
2023-05-01T15:17:53.106Z,63.40
2023-05-01T15:20:24.673Z,62.38
2023-05-01T15:22:56.322Z,62.76
2023-05-01T15:25:28.247Z,61.24
2023-05-01T15:27:59.863Z,63.65
2023-05-01T15:30:31.731Z,62.67
2023-05-01T15:33:04.837Z,63.43
2023-05-01T15:35:36.400Z,64.29
2023-05-01T15:38:07.998Z,64.73
2023-05-01T15:40:39.607Z,61.43
2023-05-01T15:43:11.176Z,62.18
2023-05-01T15:45:44.573Z,61.85
2023-05-01T15:48:16.358Z,61.38
2023-05-01T15:50:51.125Z,64.11
2023-05-01T15:53:30.498Z,63.99
2023-05-01T15:56:03.149Z,63.70
2023-05-01T15:58:34.656Z,65.31
2023-05-01T16:01:06.343Z,66.14
2023-05-01T16:03:44.585Z,65.00
2023-05-01T16:06:19.108Z,64.91
2023-05-01T16:08:50.981Z,65.53
2023-05-01T16:11:22.580Z,63.75
2023-05-01T16:13:54.989Z,64.03
2023-05-01T16:16:28.139Z,62.74
2023-05-01T16:19:00.510Z,63.15
2023-05-01T16:21:32.940Z,62.39
2023-05-01T16:24:07.429Z,62.73
2023-05-01T16:26:41.462Z,62.05
2023-05-01T16:29:13.146Z,61.13
2023-05-01T16:31:48.467Z,61.24
2023-05-01T16:34:25.470Z,60.65
2023-05-01T16:36:57.161Z,61.65
2023-05-01T16:39:28.783Z,62.61
2023-05-01T16:42:01.617Z,61.72
2023-05-01T16:44:36.722Z,61.22
2023-05-01T16:47:11.312Z,61.62
2023-05-01T16:49:42.951Z,61.76
2023-05-01T16:52:15.698Z,61.01
2023-05-01T16:54:48.228Z,61.50
2023-05-01T16:57:21.222Z,61.99
2023-05-01T16:59:53.236Z,66.47
2023-05-01T17:02:24.841Z,64.36
2023-05-01T17:04:56.435Z,64.79
2023-05-01T17:07:27.992Z,64.04
2023-05-01T17:09:59.867Z,61.84
2023-05-01T17:12:31.898Z,60.75
2023-05-01T17:15:04.889Z,61.60
2023-05-01T17:17:39.296Z,61.30
2023-05-01T17:20:11.816Z,61.75
2023-05-01T17:22:44.531Z,60.94
2023-05-01T17:25:19.172Z,62.02
2023-05-01T17:27:52.820Z,62.10
2023-05-01T17:30:24.500Z,60.81
2023-05-01T17:32:57.178Z,60.71
2023-05-01T17:35:29.044Z,63.58
2023-05-01T17:38:00.826Z,64.15
2023-05-01T17:40:32.441Z,62.24
2023-05-01T17:43:04.313Z,62.01
2023-05-01T17:45:38.794Z,61.23
2023-05-01T17:48:11.059Z,61.86
2023-05-01T17:50:42.750Z,65.22
2023-05-01T17:53:14.377Z,71.02
2023-05-01T17:55:46.085Z,68.42
2023-05-01T17:58:17.902Z,67.46
2023-05-01T18:00:49.639Z,66.60
2023-05-01T18:03:21.364Z,65.88
2023-05-01T18:05:52.991Z,67.27
2023-05-01T18:08:24.730Z,65.08
2023-05-01T18:10:56.504Z,62.86
2023-05-01T18:13:28.764Z,62.34
2023-05-01T18:16:00.441Z,62.15
2023-05-01T18:18:34.330Z,62.86
2023-05-01T18:21:05.929Z,62.34
2023-05-01T18:23:39.034Z,63.12
2023-05-01T18:26:10.661Z,62.28
2023-05-01T18:28:42.239Z,62.59
2023-05-01T18:31:17.245Z,62.16
2023-05-01T18:33:48.976Z,62.50
2023-05-01T18:36:20.769Z,61.81
2023-05-01T18:38:52.517Z,61.86
2023-05-01T18:41:25.644Z,61.99
2023-05-01T18:43:58.302Z,62.17
2023-05-01T18:46:30.238Z,61.34
2023-05-01T18:49:02.065Z,62.39
2023-05-01T18:51:33.667Z,63.45
2023-05-01T18:54:07.130Z,62.71
2023-05-01T18:56:38.763Z,62.10
2023-05-01T18:59:10.364Z,61.99
2023-05-01T19:01:42.022Z,62.50
2023-05-01T19:04:13.785Z,62.42
2023-05-01T19:06:45.587Z,61.99
2023-05-01T19:09:17.275Z,61.77
2023-05-01T19:11:49.085Z,62.69
2023-05-01T19:14:21.659Z,63.98
2023-05-01T19:16:53.339Z,64.81
2023-05-01T19:19:24.857Z,64.58
2023-05-01T19:21:56.529Z,64.99
2023-05-01T19:24:28.164Z,65.73
2023-05-01T19:27:00.272Z,67.51
2023-05-01T19:29:32.545Z,68.55
2023-05-01T19:32:04.345Z,69.09
2023-05-01T19:34:39.019Z,69.66
2023-05-01T19:37:10.639Z,68.90
2023-05-01T19:39:42.246Z,68.44
2023-05-01T19:42:15.215Z,68.53
2023-05-01T19:44:49.320Z,72.45
2023-05-01T19:47:21.071Z,70.04
2023-05-01T19:49:52.703Z,68.05
2023-05-01T19:52:24.398Z,67.46
2023-05-01T19:54:56.093Z,68.26
2023-05-01T19:57:27.720Z,68.49
2023-05-01T19:59:59.790Z,70.69
2023-05-01T20:02:31.772Z,73.18
2023-05-01T20:05:04.585Z,75.12
2023-05-01T20:07:36.399Z,73.14
2023-05-01T20:10:09.791Z,74.20
2023-05-01T20:12:43.316Z,74.53
2023-05-01T20:15:15.058Z,73.45
2023-05-01T20:17:50.276Z,75.98
2023-05-01T20:20:21.924Z,73.41
2023-05-01T20:23:13.367Z,74.40
2023-05-01T20:25:47.750Z,74.03
2023-05-01T20:28:20.650Z,75.87
2023-05-01T20:30:52.599Z,71.93
2023-05-01T20:33:24.664Z,68.08
2023-05-01T20:35:56.303Z,68.14
2023-05-01T20:38:27.876Z,66.67
2023-05-01T20:40:59.417Z,69.15
2023-05-01T20:43:30.984Z,67.97
2023-05-01T20:46:02.691Z,65.81
2023-05-01T20:48:34.309Z,68.01
2023-05-01T20:51:05.900Z,66.85
2023-05-01T20:53:37.696Z,66.39
2023-05-01T20:56:09.388Z,66.06
2023-05-01T20:58:40.946Z,63.67
2023-05-01T21:01:12.575Z,63.83
2023-05-01T21:03:44.319Z,63.32
2023-05-01T21:06:16.302Z,63.79
2023-05-01T21:08:48.808Z,64.28
2023-05-01T21:11:20.974Z,64.72
2023-05-01T21:13:52.539Z,63.94
2023-05-01T21:16:24.334Z,63.39
2023-05-01T21:18:56.013Z,63.80
2023-05-01T21:21:27.765Z,62.92
2023-05-01T21:23:59.328Z,62.45
2023-05-01T21:26:30.964Z,62.59
2023-05-01T21:29:02.737Z,63.51
2023-05-01T21:31:35.972Z,64.88
2023-05-01T21:34:09.128Z,64.51
2023-05-01T21:36:47.533Z,64.60
2023-05-01T21:39:21.753Z,64.47
2023-05-01T21:41:53.381Z,65.08
2023-05-01T21:44:30.866Z,65.76
2023-05-01T21:47:02.554Z,65.51
2023-05-01T21:49:34.259Z,65.05
2023-05-01T21:52:08.669Z,64.17
2023-05-01T21:54:40.494Z,64.02
2023-05-01T21:57:12.227Z,63.71
2023-05-01T21:59:45.115Z,64.74
2023-05-01T22:02:16.763Z,63.83
2023-05-01T22:04:48.380Z,63.53
2023-05-01T22:07:20.005Z,63.60
2023-05-01T22:09:51.619Z,63.86
2023-05-01T22:12:23.185Z,64.12
2023-05-01T22:14:55.249Z,64.00
2023-05-01T22:17:26.839Z,62.84
2023-05-01T22:19:58.662Z,62.80
2023-05-01T22:22:30.609Z,61.66
2023-05-01T22:25:03.852Z,60.99
2023-05-01T22:27:36.502Z,61.60
2023-05-01T22:30:08.655Z,64.34
2023-05-01T22:32:40.252Z,65.87
2023-05-01T22:35:11.972Z,66.85
2023-05-01T22:37:43.531Z,67.26
2023-05-01T22:40:15.278Z,67.74
2023-05-01T22:42:47.378Z,66.36
2023-05-01T22:45:19.016Z,67.40
2023-05-01T22:47:50.759Z,69.25
2023-05-01T22:50:22.375Z,70.18
2023-05-01T22:52:53.945Z,68.49
2023-05-01T22:55:25.525Z,70.46
2023-05-01T22:57:57.091Z,68.69
2023-05-01T23:00:28.965Z,68.03
2023-05-01T23:03:02.871Z,67.36
2023-05-01T23:05:34.966Z,69.73
2023-05-01T23:08:06.900Z,69.00
2023-05-01T23:10:44.987Z,68.67
2023-05-01T23:13:23.580Z,67.62
2023-05-01T23:15:55.320Z,69.96
2023-05-01T23:18:36.501Z,68.15
2023-05-01T23:21:08.121Z,66.49
2023-05-01T23:23:43.213Z,66.75
2023-05-01T23:26:29.152Z,65.92
2023-05-01T23:29:00.799Z,64.08
2023-05-01T23:31:32.530Z,65.35
2023-05-01T23:34:04.233Z,66.79
2023-05-01T23:36:35.853Z,64.85
2023-05-01T23:39:07.584Z,67.60
2023-05-01T23:41:39.554Z,64.69
2023-05-01T23:44:11.273Z,66.17
2023-05-01T23:46:42.913Z,65.54
2023-05-01T23:49:17.602Z,65.88
2023-05-01T23:51:52.415Z,63.61
2023-05-01T23:54:23.999Z,64.11
2023-05-01T23:57:03.064Z,64.89
2023-05-01T23:59:34.691Z,63.60
